sensor_id;sensor_type;location;lat;lon;timestamp;temperature;humidity
76299;DHT22;65236;42.332;23.550;2022-12-07T00:01:38;3.63;82.92
76299;DHT22;65236;42.332;23.550;2022-12-07T00:04:06;3.63;82.79
76299;DHT22;65236;42.332;23.550;2022-12-07T00:06:40;3.67;82.59
76299;DHT22;65236;42.332;23.550;2022-12-07T00:09:08;3.69;82.62
76299;DHT22;65236;42.332;23.550;2022-12-07T00:11:34;3.67;82.48
76299;DHT22;65236;42.332;23.550;2022-12-07T00:14:03;3.69;82.46
76299;DHT22;65236;42.332;23.550;2022-12-07T00:16:31;3.67;82.47
76299;DHT22;65236;42.332;23.550;2022-12-07T00:18:57;3.67;82.54
76299;DHT22;65236;42.332;23.550;2022-12-07T00:21:25;3.64;82.83
76299;DHT22;65236;42.332;23.550;2022-12-07T00:23:52;3.62;82.91
76299;DHT22;65236;42.332;23.550;2022-12-07T00:26:32;3.60;82.97
76299;DHT22;65236;42.332;23.550;2022-12-07T00:29:03;3.57;83.39
76299;DHT22;65236;42.332;23.550;2022-12-07T00:31:33;3.57;83.64
76299;DHT22;65236;42.332;23.550;2022-12-07T00:34:00;3.60;83.55
76299;DHT22;65236;42.332;23.550;2022-12-07T00:36:26;3.60;83.75
76299;DHT22;65236;42.332;23.550;2022-12-07T00:38:52;3.64;83.72
76299;DHT22;65236;42.332;23.550;2022-12-07T00:41:20;3.70;83.29
76299;DHT22;65236;42.332;23.550;2022-12-07T00:43:47;3.73;83.09
76299;DHT22;65236;42.332;23.550;2022-12-07T00:46:13;3.78;82.94
76299;DHT22;65236;42.332;23.550;2022-12-07T00:48:39;3.78;83.01
76299;DHT22;65236;42.332;23.550;2022-12-07T00:51:05;3.73;83.21
76299;DHT22;65236;42.332;23.550;2022-12-07T00:53:34;3.73;83.37
76299;DHT22;65236;42.332;23.550;2022-12-07T00:56:08;3.71;83.32
76299;DHT22;65236;42.332;23.550;2022-12-07T00:58:33;3.75;83.44
76299;DHT22;65236;42.332;23.550;2022-12-07T01:01:00;3.80;83.34
76299;DHT22;65236;42.332;23.550;2022-12-07T01:03:26;3.87;83.22
76299;DHT22;65236;42.332;23.550;2022-12-07T01:05:53;3.90;83.09
76299;DHT22;65236;42.332;23.550;2022-12-07T01:08:19;3.93;82.87
76299;DHT22;65236;42.332;23.550;2022-12-07T01:10:45;3.93;82.76
76299;DHT22;65236;42.332;23.550;2022-12-07T01:13:11;3.94;82.75
76299;DHT22;65236;42.332;23.550;2022-12-07T01:15:43;3.93;82.80
76299;DHT22;65236;42.332;23.550;2022-12-07T01:18:10;3.95;82.86
76299;DHT22;65236;42.332;23.550;2022-12-07T01:20:36;3.95;82.97
76299;DHT22;65236;42.332;23.550;2022-12-07T01:23:02;3.93;82.85
76299;DHT22;65236;42.332;23.550;2022-12-07T01:25:27;3.91;82.85
76299;DHT22;65236;42.332;23.550;2022-12-07T01:27:53;3.97;82.85
76299;DHT22;65236;42.332;23.550;2022-12-07T01:30:18;4.05;82.73
76299;DHT22;65236;42.332;23.550;2022-12-07T01:32:44;4.12;82.58
76299;DHT22;65236;42.332;23.550;2022-12-07T01:35:09;4.18;82.25
76299;DHT22;65236;42.332;23.550;2022-12-07T01:37:36;4.22;83.09
76299;DHT22;65236;42.332;23.550;2022-12-07T01:40:03;4.25;82.69
76299;DHT22;65236;42.332;23.550;2022-12-07T01:42:28;4.26;81.69
76299;DHT22;65236;42.332;23.550;2022-12-07T01:45:36;4.26;81.27
76299;DHT22;65236;42.332;23.550;2022-12-07T01:48:03;4.23;81.22
76299;DHT22;65236;42.332;23.550;2022-12-07T01:50:29;4.29;81.17
76299;DHT22;65236;42.332;23.550;2022-12-07T01:52:58;4.32;81.22
76299;DHT22;65236;42.332;23.550;2022-12-07T01:55:25;4.38;81.22
76299;DHT22;65236;42.332;23.550;2022-12-07T01:57:52;4.42;81.16
76299;DHT22;65236;42.332;23.550;2022-12-07T02:00:19;4.43;81.20
76299;DHT22;65236;42.332;23.550;2022-12-07T02:05:31;4.35;81.66
76299;DHT22;65236;42.332;23.550;2022-12-07T02:07:57;4.32;81.53
76299;DHT22;65236;42.332;23.550;2022-12-07T02:10:28;4.23;81.89
76299;DHT22;65236;42.332;23.550;2022-12-07T02:13:03;4.23;82.15
76299;DHT22;65236;42.332;23.550;2022-12-07T02:15:41;4.22;82.31
76299;DHT22;65236;42.332;23.550;2022-12-07T02:23:40;4.18;82.48
76299;DHT22;65236;42.332;23.550;2022-12-07T02:31:33;3.99;83.06
76299;DHT22;65236;42.332;23.550;2022-12-07T02:34:07;3.97;83.34
76299;DHT22;65236;42.332;23.550;2022-12-07T02:36:42;3.95;83.47
76299;DHT22;65236;42.332;23.550;2022-12-07T02:39:17;3.95;83.68
76299;DHT22;65236;42.332;23.550;2022-12-07T02:41:47;3.98;83.56
76299;DHT22;65236;42.332;23.550;2022-12-07T02:44:17;3.94;83.60
76299;DHT22;65236;42.332;23.550;2022-12-07T02:46:52;3.94;83.77
76299;DHT22;65236;42.332;23.550;2022-12-07T02:49:21;3.95;84.00
76299;DHT22;65236;42.332;23.550;2022-12-07T02:51:48;3.97;84.14
76299;DHT22;65236;42.332;23.550;2022-12-07T02:54:18;4.01;84.02
76299;DHT22;65236;42.332;23.550;2022-12-07T03:07:42;3.87;84.12
76299;DHT22;65236;42.332;23.550;2022-12-07T03:13:12;3.66;84.50
76299;DHT22;65236;42.332;23.550;2022-12-07T03:18:48;3.46;85.07
76299;DHT22;65236;42.332;23.550;2022-12-07T03:21:18;3.39;85.33
76299;DHT22;65236;42.332;23.550;2022-12-07T03:23:49;3.35;85.43
76299;DHT22;65236;42.332;23.550;2022-12-07T03:26:17;3.29;85.60
76299;DHT22;65236;42.332;23.550;2022-12-07T03:28:47;3.28;85.74
76299;DHT22;65236;42.332;23.550;2022-12-07T03:31:44;3.32;85.72
76299;DHT22;65236;42.332;23.550;2022-12-07T03:34:17;3.29;85.67
76299;DHT22;65236;42.332;23.550;2022-12-07T03:36:48;3.28;85.89
76299;DHT22;65236;42.332;23.550;2022-12-07T03:39:26;3.20;86.21
76299;DHT22;65236;42.332;23.550;2022-12-07T03:41:54;3.22;86.42
76299;DHT22;65236;42.332;23.550;2022-12-07T03:44:21;3.20;86.58
76299;DHT22;65236;42.332;23.550;2022-12-07T03:47:04;3.18;86.79
76299;DHT22;65236;42.332;23.550;2022-12-07T03:49:42;3.20;86.70
76299;DHT22;65236;42.332;23.550;2022-12-07T03:52:25;3.16;86.43
76299;DHT22;65236;42.332;23.550;2022-12-07T03:55:17;3.11;86.49
76299;DHT22;65236;42.332;23.550;2022-12-07T03:57:45;3.09;86.46
76299;DHT22;65236;42.332;23.550;2022-12-07T04:00:13;3.08;86.56
76299;DHT22;65236;42.332;23.550;2022-12-07T04:02:39;3.11;86.27
76299;DHT22;65236;42.332;23.550;2022-12-07T04:05:05;3.02;86.21
76299;DHT22;65236;42.332;23.550;2022-12-07T04:07:31;3.02;86.42
76299;DHT22;65236;42.332;23.550;2022-12-07T04:09:56;3.02;86.69
76299;DHT22;65236;42.332;23.550;2022-12-07T04:12:22;3.01;86.87
76299;DHT22;65236;42.332;23.550;2022-12-07T04:14:48;3.02;87.01
76299;DHT22;65236;42.332;23.550;2022-12-07T04:17:13;3.02;86.95
76299;DHT22;65236;42.332;23.550;2022-12-07T04:19:38;3.02;87.10
76299;DHT22;65236;42.332;23.550;2022-12-07T04:22:05;3.05;87.09
76299;DHT22;65236;42.332;23.550;2022-12-07T04:24:31;3.12;86.76
76299;DHT22;65236;42.332;23.550;2022-12-07T04:26:56;3.15;86.48
76299;DHT22;65236;42.332;23.550;2022-12-07T04:29:22;3.16;86.60
76299;DHT22;65236;42.332;23.550;2022-12-07T04:31:48;3.20;86.54
76299;DHT22;65236;42.332;23.550;2022-12-07T04:34:14;3.20;86.48
76299;DHT22;65236;42.332;23.550;2022-12-07T04:36:40;3.22;86.44
76299;DHT22;65236;42.332;23.550;2022-12-07T04:39:07;3.23;86.61
76299;DHT22;65236;42.332;23.550;2022-12-07T04:41:33;3.20;86.59
76299;DHT22;65236;42.332;23.550;2022-12-07T04:44:01;3.16;86.60
76299;DHT22;65236;42.332;23.550;2022-12-07T04:46:29;3.18;86.70
76299;DHT22;65236;42.332;23.550;2022-12-07T04:48:55;3.15;86.49
76299;DHT22;65236;42.332;23.550;2022-12-07T04:51:22;3.15;86.23
76299;DHT22;65236;42.332;23.550;2022-12-07T04:53:48;3.13;85.87
76299;DHT22;65236;42.332;23.550;2022-12-07T04:56:15;3.11;85.86
76299;DHT22;65236;42.332;23.550;2022-12-07T04:58:42;3.07;86.03
76299;DHT22;65236;42.332;23.550;2022-12-07T05:01:08;3.02;86.23
76299;DHT22;65236;42.332;23.550;2022-12-07T05:03:34;3.05;86.32
76299;DHT22;65236;42.332;23.550;2022-12-07T05:05:59;3.02;86.34
76299;DHT22;65236;42.332;23.550;2022-12-07T05:08:24;3.01;86.42
76299;DHT22;65236;42.332;23.550;2022-12-07T05:10:50;3.04;86.41
76299;DHT22;65236;42.332;23.550;2022-12-07T05:13:15;2.99;86.47
76299;DHT22;65236;42.332;23.550;2022-12-07T05:15:41;2.98;86.56
76299;DHT22;65236;42.332;23.550;2022-12-07T05:18:09;2.94;86.63
76299;DHT22;65236;42.332;23.550;2022-12-07T05:20:34;2.91;86.68
76299;DHT22;65236;42.332;23.550;2022-12-07T05:23:00;2.88;86.86
76299;DHT22;65236;42.332;23.550;2022-12-07T05:25:25;2.80;87.08
76299;DHT22;65236;42.332;23.550;2022-12-07T05:27:51;2.78;87.19
76299;DHT22;65236;42.332;23.550;2022-12-07T05:30:16;2.78;87.25
76299;DHT22;65236;42.332;23.550;2022-12-07T05:32:41;2.76;87.34
76299;DHT22;65236;42.332;23.550;2022-12-07T05:35:07;2.76;87.43
76299;DHT22;65236;42.332;23.550;2022-12-07T05:37:33;2.76;87.46
76299;DHT22;65236;42.332;23.550;2022-12-07T05:39:58;2.77;87.39
76299;DHT22;65236;42.332;23.550;2022-12-07T05:42:24;2.76;87.29
76299;DHT22;65236;42.332;23.550;2022-12-07T05:44:49;2.76;87.30
76299;DHT22;65236;42.332;23.550;2022-12-07T05:47:15;2.74;87.38
76299;DHT22;65236;42.332;23.550;2022-12-07T05:49:41;2.76;87.51
76299;DHT22;65236;42.332;23.550;2022-12-07T05:52:07;2.83;88.05
76299;DHT22;65236;42.332;23.550;2022-12-07T05:54:33;2.94;88.70
76299;DHT22;65236;42.332;23.550;2022-12-07T05:56:58;2.94;87.74
76299;DHT22;65236;42.332;23.550;2022-12-07T05:59:25;2.92;87.28
76299;DHT22;65236;42.332;23.550;2022-12-07T06:02:01;2.94;87.09
76299;DHT22;65236;42.332;23.550;2022-12-07T06:04:29;2.97;86.90
76299;DHT22;65236;42.332;23.550;2022-12-07T06:06:55;2.99;86.83
76299;DHT22;65236;42.332;23.550;2022-12-07T06:09:22;3.02;86.82
76299;DHT22;65236;42.332;23.550;2022-12-07T06:11:48;3.07;86.73
76299;DHT22;65236;42.332;23.550;2022-12-07T06:14:32;3.12;86.65
76299;DHT22;65236;42.332;23.550;2022-12-07T06:16:58;3.15;86.46
76299;DHT22;65236;42.332;23.550;2022-12-07T06:19:23;3.20;86.38
76299;DHT22;65236;42.332;23.550;2022-12-07T06:21:49;3.22;86.40
76299;DHT22;65236;42.332;23.550;2022-12-07T06:24:15;3.26;86.16
76299;DHT22;65236;42.332;23.550;2022-12-07T06:26:41;3.30;86.03
76299;DHT22;65236;42.332;23.550;2022-12-07T06:29:09;3.37;85.58
76299;DHT22;65236;42.332;23.550;2022-12-07T06:31:35;3.43;85.05
76299;DHT22;65236;42.332;23.550;2022-12-07T06:34:12;3.53;84.61
76299;DHT22;65236;42.332;23.550;2022-12-07T06:36:39;3.59;84.38
76299;DHT22;65236;42.332;23.550;2022-12-07T06:39:05;3.63;84.32
76299;DHT22;65236;42.332;23.550;2022-12-07T06:41:30;3.69;83.97
76299;DHT22;65236;42.332;23.550;2022-12-07T06:43:56;3.80;83.78
76299;DHT22;65236;42.332;23.550;2022-12-07T06:46:22;3.80;83.48
76299;DHT22;65236;42.332;23.550;2022-12-07T06:48:48;3.85;83.38
76299;DHT22;65236;42.332;23.550;2022-12-07T06:51:13;3.87;83.16
76299;DHT22;65236;42.332;23.550;2022-12-07T06:53:38;3.93;83.02
76299;DHT22;65236;42.332;23.550;2022-12-07T06:56:04;3.99;82.89
76299;DHT22;65236;42.332;23.550;2022-12-07T06:58:30;4.01;82.72
76299;DHT22;65236;42.332;23.550;2022-12-07T07:00:56;4.08;82.56
76299;DHT22;65236;42.332;23.550;2022-12-07T07:03:21;4.14;82.11
76299;DHT22;65236;42.332;23.550;2022-12-07T07:05:47;4.16;82.00
76299;DHT22;65236;42.332;23.550;2022-12-07T07:08:13;4.25;81.99
76299;DHT22;65236;42.332;23.550;2022-12-07T07:10:38;4.32;81.48
76299;DHT22;65236;42.332;23.550;2022-12-07T07:13:04;4.42;81.33
76299;DHT22;65236;42.332;23.550;2022-12-07T07:15:31;4.60;81.44
76299;DHT22;65236;42.332;23.550;2022-12-07T07:17:57;4.77;80.80
76299;DHT22;65236;42.332;23.550;2022-12-07T07:20:22;4.92;80.82
76299;DHT22;65236;42.332;23.550;2022-12-07T07:22:48;5.07;80.43
76299;DHT22;65236;42.332;23.550;2022-12-07T07:25:14;5.24;79.95
76299;DHT22;65236;42.332;23.550;2022-12-07T07:27:40;5.49;79.06
76299;DHT22;65236;42.332;23.550;2022-12-07T07:30:07;5.86;78.12
76299;DHT22;65236;42.332;23.550;2022-12-07T07:32:32;6.07;77.06
76299;DHT22;65236;42.332;23.550;2022-12-07T07:34:58;6.26;76.60
76299;DHT22;65236;42.332;23.550;2022-12-07T07:37:23;6.33;76.20
76299;DHT22;65236;42.332;23.550;2022-12-07T07:39:49;6.69;75.88
76299;DHT22;65236;42.332;23.550;2022-12-07T07:42:15;7.14;74.57
76299;DHT22;65236;42.332;23.550;2022-12-07T07:44:40;7.46;73.85
76299;DHT22;65236;42.332;23.550;2022-12-07T07:47:06;8.04;71.30
76299;DHT22;65236;42.332;23.550;2022-12-07T07:49:31;8.76;69.25
76299;DHT22;65236;42.332;23.550;2022-12-07T07:51:56;9.36;67.02
76299;DHT22;65236;42.332;23.550;2022-12-07T07:54:22;9.92;65.47
76299;DHT22;65236;42.332;23.550;2022-12-07T07:56:47;10.76;63.28
76299;DHT22;65236;42.332;23.550;2022-12-07T07:59:14;11.38;61.01
76299;DHT22;65236;42.332;23.550;2022-12-07T08:01:39;12.10;59.50
76299;DHT22;65236;42.332;23.550;2022-12-07T08:04:05;13.01;57.51
76299;DHT22;65236;42.332;23.550;2022-12-07T08:06:30;13.49;55.36
76299;DHT22;65236;42.332;23.550;2022-12-07T08:08:56;14.19;53.96
76299;DHT22;65236;42.332;23.550;2022-12-07T08:11:23;14.79;51.87
76299;DHT22;65236;42.332;23.550;2022-12-07T08:13:49;15.11;50.19
76299;DHT22;65236;42.332;23.550;2022-12-07T08:16:15;15.73;49.92
76299;DHT22;65236;42.332;23.550;2022-12-07T08:18:41;16.55;47.99
76299;DHT22;65236;42.332;23.550;2022-12-07T08:21:08;17.13;45.71
76299;DHT22;65236;42.332;23.550;2022-12-07T08:23:34;16.96;45.88
76299;DHT22;65236;42.332;23.550;2022-12-07T08:26:01;16.86;46.10
76299;DHT22;65236;42.332;23.550;2022-12-07T08:28:28;16.73;45.82
76299;DHT22;65236;42.332;23.550;2022-12-07T08:31:01;16.31;46.46
76299;DHT22;65236;42.332;23.550;2022-12-07T08:33:27;16.35;46.19
76299;DHT22;65236;42.332;23.550;2022-12-07T08:35:53;16.93;45.02
76299;DHT22;65236;42.332;23.550;2022-12-07T08:38:18;17.14;44.59
76299;DHT22;65236;42.332;23.550;2022-12-07T08:40:44;17.39;43.82
76299;DHT22;65236;42.332;23.550;2022-12-07T08:43:09;17.46;44.34
76299;DHT22;65236;42.332;23.550;2022-12-07T08:45:35;17.58;43.19
76299;DHT22;65236;42.332;23.550;2022-12-07T08:48:09;18.10;43.22
76299;DHT22;65236;42.332;23.550;2022-12-07T08:50:37;18.99;41.28
76299;DHT22;65236;42.332;23.550;2022-12-07T08:53:04;20.00;38.98
76299;DHT22;65236;42.332;23.550;2022-12-07T08:55:31;21.29;36.95
76299;DHT22;65236;42.332;23.550;2022-12-07T08:57:58;22.16;35.09
76299;DHT22;65236;42.332;23.550;2022-12-07T09:00:24;22.41;33.96
76299;DHT22;65236;42.332;23.550;2022-12-07T09:02:49;23.00;33.18
76299;DHT22;65236;42.332;23.550;2022-12-07T09:05:15;23.44;33.16
76299;DHT22;65236;42.332;23.550;2022-12-07T09:07:42;24.03;31.29
76299;DHT22;65236;42.332;23.550;2022-12-07T09:10:08;24.11;31.14
76299;DHT22;65236;42.332;23.550;2022-12-07T09:12:34;24.17;30.98
76299;DHT22;65236;42.332;23.550;2022-12-07T09:14:59;24.25;30.02
76299;DHT22;65236;42.332;23.550;2022-12-07T09:17:26;25.23;30.08
76299;DHT22;65236;42.332;23.550;2022-12-07T09:19:51;25.80;28.75
76299;DHT22;65236;42.332;23.550;2022-12-07T09:22:17;26.25;28.48
76299;DHT22;65236;42.332;23.550;2022-12-07T09:24:42;26.53;28.13
76299;DHT22;65236;42.332;23.550;2022-12-07T09:27:09;25.96;27.95
76299;DHT22;65236;42.332;23.550;2022-12-07T09:29:35;25.55;28.27
76299;DHT22;65236;42.332;23.550;2022-12-07T09:32:00;26.50;27.62
76299;DHT22;65236;42.332;23.550;2022-12-07T09:34:25;26.40;27.53
76299;DHT22;65236;42.332;23.550;2022-12-07T09:36:51;27.32;26.61
76299;DHT22;65236;42.332;23.550;2022-12-07T09:39:17;28.00;26.05
76299;DHT22;65236;42.332;23.550;2022-12-07T09:41:44;28.93;25.59
76299;DHT22;65236;42.332;23.550;2022-12-07T09:44:19;29.58;24.61
76299;DHT22;65236;42.332;23.550;2022-12-07T09:46:45;29.55;24.09
76299;DHT22;65236;42.332;23.550;2022-12-07T09:49:20;29.80;24.00
76299;DHT22;65236;42.332;23.550;2022-12-07T09:51:48;30.17;23.99
76299;DHT22;65236;42.332;23.550;2022-12-07T09:54:24;31.13;22.79
76299;DHT22;65236;42.332;23.550;2022-12-07T09:56:49;31.70;22.01
76299;DHT22;65236;42.332;23.550;2022-12-07T09:59:18;32.52;21.46
76299;DHT22;65236;42.332;23.550;2022-12-07T10:01:48;31.81;21.85
76299;DHT22;65236;42.332;23.550;2022-12-07T10:04:40;31.37;22.53
76299;DHT22;65236;42.332;23.550;2022-12-07T10:07:07;31.78;22.73
76299;DHT22;65236;42.332;23.550;2022-12-07T10:09:32;33.04;21.12
76299;DHT22;65236;42.332;23.550;2022-12-07T10:12:11;32.06;21.35
76299;DHT22;65236;42.332;23.550;2022-12-07T10:14:39;32.98;21.42
76299;DHT22;65236;42.332;23.550;2022-12-07T10:20:15;35.30;19.31
76299;DHT22;65236;42.332;23.550;2022-12-07T10:23:08;32.90;20.35
76299;DHT22;65236;42.332;23.550;2022-12-07T10:25:38;32.13;20.78
76299;DHT22;65236;42.332;23.550;2022-12-07T10:31:14;33.33;20.81
76299;DHT22;65236;42.332;23.550;2022-12-07T10:33:52;34.90;19.40
76299;DHT22;65236;42.332;23.550;2022-12-07T10:36:34;35.14;19.12
76299;DHT22;65236;42.332;23.550;2022-12-07T10:39:13;35.07;18.83
76299;DHT22;65236;42.332;23.550;2022-12-07T10:41:58;34.97;18.64
76299;DHT22;65236;42.332;23.550;2022-12-07T10:44:26;35.37;19.11
76299;DHT22;65236;42.332;23.550;2022-12-07T10:47:01;35.26;18.96
76299;DHT22;65236;42.332;23.550;2022-12-07T10:52:09;36.88;18.34
76299;DHT22;65236;42.332;23.550;2022-12-07T10:57:40;34.11;19.78
76299;DHT22;65236;42.332;23.550;2022-12-07T11:00:23;32.41;21.61
76299;DHT22;65236;42.332;23.550;2022-12-07T11:08:38;28.29;25.32
76299;DHT22;65236;42.332;23.550;2022-12-07T11:27:04;27.46;26.28
76299;DHT22;65236;42.332;23.550;2022-12-07T11:29:52;27.98;25.81
76299;DHT22;65236;42.332;23.550;2022-12-07T11:35:22;28.24;24.98
76299;DHT22;65236;42.332;23.550;2022-12-07T11:37:54;28.01;25.62
76299;DHT22;65236;42.332;23.550;2022-12-07T11:45:55;30.65;23.16
76299;DHT22;65236;42.332;23.550;2022-12-07T11:48:30;31.45;22.72
76299;DHT22;65236;42.332;23.550;2022-12-07T11:50:59;32.46;21.81
76299;DHT22;65236;42.332;23.550;2022-12-07T11:56:17;32.37;21.03
76299;DHT22;65236;42.332;23.550;2022-12-07T12:06:42;32.77;21.30
76299;DHT22;65236;42.332;23.550;2022-12-07T12:09:15;32.85;20.94
76299;DHT22;65236;42.332;23.550;2022-12-07T12:12:01;33.60;21.06
76299;DHT22;65236;42.332;23.550;2022-12-07T12:17:20;31.41;22.67
76299;DHT22;65236;42.332;23.550;2022-12-07T12:20:16;29.79;24.20
76299;DHT22;65236;42.332;23.550;2022-12-07T12:25:30;24.64;30.20
76299;DHT22;65236;42.332;23.550;2022-12-07T12:27:58;23.04;31.70
76299;DHT22;65236;42.332;23.550;2022-12-07T12:30:37;21.78;34.04
76299;DHT22;65236;42.332;23.550;2022-12-07T12:33:12;20.58;35.60
76299;DHT22;65236;42.332;23.550;2022-12-07T12:35:38;19.53;37.95
76299;DHT22;65236;42.332;23.550;2022-12-07T12:40:52;18.14;40.21
76299;DHT22;65236;42.332;23.550;2022-12-07T12:43:47;17.78;41.04
76299;DHT22;65236;42.332;23.550;2022-12-07T12:49:13;16.55;44.19
76299;DHT22;65236;42.332;23.550;2022-12-07T12:51:41;16.07;45.35
76299;DHT22;65236;42.332;23.550;2022-12-07T12:54:21;15.56;46.38
76299;DHT22;65236;42.332;23.550;2022-12-07T12:57:23;15.18;47.04
76299;DHT22;65236;42.332;23.550;2022-12-07T13:05:02;14.97;47.45
76299;DHT22;65236;42.332;23.550;2022-12-07T13:29:18;14.08;50.08
76299;DHT22;65236;42.332;23.550;2022-12-07T13:31:54;14.06;50.46
76299;DHT22;65236;42.332;23.550;2022-12-07T13:36:56;13.56;51.20
76299;DHT22;65236;42.332;23.550;2022-12-07T13:39:24;13.02;52.51
76299;DHT22;65236;42.332;23.550;2022-12-07T13:41:54;12.73;53.96
76299;DHT22;65236;42.332;23.550;2022-12-07T13:44:22;12.50;54.32
76299;DHT22;65236;42.332;23.550;2022-12-07T13:49:31;12.12;55.70
76299;DHT22;65236;42.332;23.550;2022-12-07T13:57:25;11.54;57.78
76299;DHT22;65236;42.332;23.550;2022-12-07T13:59:51;11.47;57.94
76299;DHT22;65236;42.332;23.550;2022-12-07T14:04:49;11.31;58.52
76299;DHT22;65236;42.332;23.550;2022-12-07T14:07:28;11.38;58.55
76299;DHT22;65236;42.332;23.550;2022-12-07T14:10:02;11.17;59.11
76299;DHT22;65236;42.332;23.550;2022-12-07T14:12:29;11.03;59.14
76299;DHT22;65236;42.332;23.550;2022-12-07T14:14:55;10.92;59.36
76299;DHT22;65236;42.332;23.550;2022-12-07T14:17:24;10.85;59.03
76299;DHT22;65236;42.332;23.550;2022-12-07T14:19:54;10.72;59.48
76299;DHT22;65236;42.332;23.550;2022-12-07T14:22:37;10.61;59.65
76299;DHT22;65236;42.332;23.550;2022-12-07T14:25:23;10.51;59.79
76299;DHT22;65236;42.332;23.550;2022-12-07T14:30:20;10.27;60.74
76299;DHT22;65236;42.332;23.550;2022-12-07T14:32:48;10.14;61.39
76299;DHT22;65236;42.332;23.550;2022-12-07T14:35:17;9.92;63.94
76299;DHT22;65236;42.332;23.550;2022-12-07T14:37:45;9.65;64.99
76299;DHT22;65236;42.332;23.550;2022-12-07T14:40:22;9.42;65.82
76299;DHT22;65236;42.332;23.550;2022-12-07T14:42:51;9.28;66.52
76299;DHT22;65236;42.332;23.550;2022-12-07T14:45:21;9.13;67.01
76299;DHT22;65236;42.332;23.550;2022-12-07T14:47:47;8.93;67.81
76299;DHT22;65236;42.332;23.550;2022-12-07T14:50:18;8.81;68.26
76299;DHT22;65236;42.332;23.550;2022-12-07T14:52:49;8.63;68.69
76299;DHT22;65236;42.332;23.550;2022-12-07T14:55:23;8.51;69.97
76299;DHT22;65236;42.332;23.550;2022-12-07T14:57:49;8.37;71.02
76299;DHT22;65236;42.332;23.550;2022-12-07T15:00:16;8.17;72.08
76299;DHT22;65236;42.332;23.550;2022-12-07T15:02:43;8.00;73.11
76299;DHT22;65236;42.332;23.550;2022-12-07T15:05:08;7.76;74.16
76299;DHT22;65236;42.332;23.550;2022-12-07T15:07:34;7.52;75.03
76299;DHT22;65236;42.332;23.550;2022-12-07T15:10:00;7.28;75.91
76299;DHT22;65236;42.332;23.550;2022-12-07T15:12:25;7.08;76.65
76299;DHT22;65236;42.332;23.550;2022-12-07T15:14:50;6.88;77.31
76299;DHT22;65236;42.332;23.550;2022-12-07T15:17:16;6.69;77.58
76299;DHT22;65236;42.332;23.550;2022-12-07T15:19:41;6.54;77.98
76299;DHT22;65236;42.332;23.550;2022-12-07T15:22:08;6.42;78.36
76299;DHT22;65236;42.332;23.550;2022-12-07T15:24:36;6.35;78.50
76299;DHT22;65236;42.332;23.550;2022-12-07T15:27:02;6.28;78.72
76299;DHT22;65236;42.332;23.550;2022-12-07T15:29:27;6.20;78.93
76299;DHT22;65236;42.332;23.550;2022-12-07T15:31:53;6.14;79.13
76299;DHT22;65236;42.332;23.550;2022-12-07T15:34:18;6.11;79.52
76299;DHT22;65236;42.332;23.550;2022-12-07T15:36:44;6.03;79.90
76299;DHT22;65236;42.332;23.550;2022-12-07T15:39:10;5.95;80.10
76299;DHT22;65236;42.332;23.550;2022-12-07T15:41:35;5.87;80.28
76299;DHT22;65236;42.332;23.550;2022-12-07T15:44:01;5.84;80.34
76299;DHT22;65236;42.332;23.550;2022-12-07T15:46:45;5.77;80.63
76299;DHT22;65236;42.332;23.550;2022-12-07T15:49:20;5.70;80.92
76299;DHT22;65236;42.332;23.550;2022-12-07T15:51:46;5.63;81.22
76299;DHT22;65236;42.332;23.550;2022-12-07T15:54:25;5.57;81.58
76299;DHT22;65236;42.332;23.550;2022-12-07T15:56:51;5.50;81.71
76299;DHT22;65236;42.332;23.550;2022-12-07T15:59:16;5.49;82.05
76299;DHT22;65236;42.332;23.550;2022-12-07T16:01:42;5.40;82.13
76299;DHT22;65236;42.332;23.550;2022-12-07T16:04:08;5.35;82.78
76299;DHT22;65236;42.332;23.550;2022-12-07T16:06:33;5.34;83.04
76299;DHT22;65236;42.332;23.550;2022-12-07T16:08:59;5.31;82.83
76299;DHT22;65236;42.332;23.550;2022-12-07T16:11:25;5.25;82.42
76299;DHT22;65236;42.332;23.550;2022-12-07T16:13:50;5.12;82.40
76299;DHT22;65236;42.332;23.550;2022-12-07T16:16:18;5.04;82.73
76299;DHT22;65236;42.332;23.550;2022-12-07T16:18:46;5.08;83.62
76299;DHT22;65236;42.332;23.550;2022-12-07T16:21:12;5.07;84.04
76299;DHT22;65236;42.332;23.550;2022-12-07T16:23:38;4.99;84.44
76299;DHT22;65236;42.332;23.550;2022-12-07T16:26:08;4.94;84.43
76299;DHT22;65236;42.332;23.550;2022-12-07T16:28:34;4.91;84.76
76299;DHT22;65236;42.332;23.550;2022-12-07T16:31:04;4.84;84.77
76299;DHT22;65236;42.332;23.550;2022-12-07T16:33:32;4.80;84.15
76299;DHT22;65236;42.332;23.550;2022-12-07T16:35:58;4.73;83.78
76299;DHT22;65236;42.332;23.550;2022-12-07T16:38:23;4.71;83.36
76299;DHT22;65236;42.332;23.550;2022-12-07T16:40:49;4.66;83.37
76299;DHT22;65236;42.332;23.550;2022-12-07T16:43:14;4.60;83.19
76299;DHT22;65236;42.332;23.550;2022-12-07T16:45:40;4.53;83.21
76299;DHT22;65236;42.332;23.550;2022-12-07T16:48:05;4.53;83.18
76299;DHT22;65236;42.332;23.550;2022-12-07T16:50:30;4.48;82.75
76299;DHT22;65236;42.332;23.550;2022-12-07T16:52:56;4.39;82.67
76299;DHT22;65236;42.332;23.550;2022-12-07T16:55:21;4.31;82.72
76299;DHT22;65236;42.332;23.550;2022-12-07T16:57:47;4.23;83.30
76299;DHT22;65236;42.332;23.550;2022-12-07T17:00:12;4.21;83.62
76299;DHT22;65236;42.332;23.550;2022-12-07T17:02:38;4.23;83.65
76299;DHT22;65236;42.332;23.550;2022-12-07T17:05:03;4.28;83.70
76299;DHT22;65236;42.332;23.550;2022-12-07T17:07:29;4.31;83.62
76299;DHT22;65236;42.332;23.550;2022-12-07T17:09:54;4.32;83.52
76299;DHT22;65236;42.332;23.550;2022-12-07T17:12:20;4.38;83.40
76299;DHT22;65236;42.332;23.550;2022-12-07T17:14:45;4.35;83.03
76299;DHT22;65236;42.332;23.550;2022-12-07T17:17:29;4.31;82.67
76299;DHT22;65236;42.332;23.550;2022-12-07T17:19:55;4.31;82.55
76299;DHT22;65236;42.332;23.550;2022-12-07T17:22:20;4.28;82.53
76299;DHT22;65236;42.332;23.550;2022-12-07T17:24:46;4.26;82.64
76299;DHT22;65236;42.332;23.550;2022-12-07T17:27:11;4.22;82.90
76299;DHT22;65236;42.332;23.550;2022-12-07T17:29:37;4.16;83.04
76299;DHT22;65236;42.332;23.550;2022-12-07T17:32:02;4.18;83.02
76299;DHT22;65236;42.332;23.550;2022-12-07T17:34:28;4.21;83.10
76299;DHT22;65236;42.332;23.550;2022-12-07T17:36:53;4.18;83.22
76299;DHT22;65236;42.332;23.550;2022-12-07T17:39:20;4.18;83.11
76299;DHT22;65236;42.332;23.550;2022-12-07T17:41:45;4.18;83.24
76299;DHT22;65236;42.332;23.550;2022-12-07T17:44:30;4.21;82.96
76299;DHT22;65236;42.332;23.550;2022-12-07T17:46:57;4.22;82.69
76299;DHT22;65236;42.332;23.550;2022-12-07T17:49:24;4.32;82.47
76299;DHT22;65236;42.332;23.550;2022-12-07T17:51:50;4.32;82.02
76299;DHT22;65236;42.332;23.550;2022-12-07T17:54:34;4.28;81.59